sensor_id;sensor_type;location;lat;lon;timestamp;pressure;altitude;pressure_sealevel;temperature;humidity
81125;BME280;72192;52.114;5.424;2023-12-20T00:01:15;101721.34;;;4.95;100.00
81125;BME280;72192;52.114;5.424;2023-12-20T00:03:55;101717.06;;;4.92;100.00
81125;BME280;72192;52.114;5.424;2023-12-20T00:06:35;101716.19;;;4.92;100.00
81125;BME280;72192;52.114;5.424;2023-12-20T00:09:14;101713.72;;;4.88;100.00
81125;BME280;72192;52.114;5.424;2023-12-20T00:11:54;101709.69;;;4.83;100.00
81125;BME280;72192;52.114;5.424;2023-12-20T00:14:34;101700.25;;;4.77;100.00
81125;BME280;72192;52.114;5.424;2023-12-20T00:17:14;101706.84;;;4.72;100.00
81125;BME280;72192;52.114;5.424;2023-12-20T00:19:54;101708.03;;;4.68;100.00
81125;BME280;72192;52.114;5.424;2023-12-20T00:22:34;101699.56;;;4.61;100.00
81125;BME280;72192;52.114;5.424;2023-12-20T00:25:13;101700.84;;;4.55;100.00
81125;BME280;72192;52.114;5.424;2023-12-20T00:27:53;101702.09;;;4.50;100.00
81125;BME280;72192;52.114;5.424;2023-12-20T00:30:33;101699.00;;;4.43;100.00
81125;BME280;72192;52.114;5.424;2023-12-20T00:33:13;101709.03;;;4.40;100.00
81125;BME280;72192;52.114;5.424;2023-12-20T00:35:52;101703.91;;;4.37;100.00
81125;BME280;72192;52.114;5.424;2023-12-20T00:38:32;101709.47;;;4.34;100.00
81125;BME280;72192;52.114;5.424;2023-12-20T00:41:14;101714.03;;;4.31;100.00
81125;BME280;72192;52.114;5.424;2023-12-20T00:43:54;101709.53;;;4.32;100.00
81125;BME280;72192;52.114;5.424;2023-12-20T00:46:34;101705.16;;;4.31;100.00
81125;BME280;72192;52.114;5.424;2023-12-20T00:49:13;101707.94;;;4.29;100.00
81125;BME280;72192;52.114;5.424;2023-12-20T00:51:53;101708.16;;;4.26;100.00
81125;BME280;72192;52.114;5.424;2023-12-20T00:54:33;101698.53;;;4.24;100.00
81125;BME280;72192;52.114;5.424;2023-12-20T00:57:12;101694.22;;;4.21;100.00
81125;BME280;72192;52.114;5.424;2023-12-20T00:59:52;101704.38;;;4.16;100.00
81125;BME280;72192;52.114;5.424;2023-12-20T01:02:32;101710.84;;;4.12;100.00
81125;BME280;72192;52.114;5.424;2023-12-20T01:05:11;101699.41;;;4.10;100.00
81125;BME280;72192;52.114;5.424;2023-12-20T01:07:51;101706.38;;;4.13;100.00
81125;BME280;72192;52.114;5.424;2023-12-20T01:10:31;101701.91;;;4.13;100.00
81125;BME280;72192;52.114;5.424;2023-12-20T01:13:10;101698.56;;;4.10;100.00
81125;BME280;72192;52.114;5.424;2023-12-20T01:15:50;101688.19;;;4.05;100.00
81125;BME280;72192;52.114;5.424;2023-12-20T01:18:30;101689.34;;;4.01;100.00
81125;BME280;72192;52.114;5.424;2023-12-20T01:21:09;101687.72;;;3.98;100.00
81125;BME280;72192;52.114;5.424;2023-12-20T01:23:49;101687.72;;;3.98;100.00
81125;BME280;72192;52.114;5.424;2023-12-20T01:26:29;101700.22;;;3.98;100.00
81125;BME280;72192;52.114;5.424;2023-12-20T01:29:08;101708.34;;;3.96;100.00
81125;BME280;72192;52.114;5.424;2023-12-20T01:31:48;101708.34;;;3.96;100.00
81125;BME280;72192;52.114;5.424;2023-12-20T01:34:28;101711.03;;;3.96;100.00
81125;BME280;72192;52.114;5.424;2023-12-20T01:37:09;101715.19;;;4.00;100.00
81125;BME280;72192;52.114;5.424;2023-12-20T01:39:49;101707.94;;;4.02;100.00
81125;BME280;72192;52.114;5.424;2023-12-20T01:42:29;101698.97;;;4.03;100.00
81125;BME280;72192;52.114;5.424;2023-12-20T01:45:08;101710.31;;;4.07;100.00
81125;BME280;72192;52.114;5.424;2023-12-20T01:47:48;101701.34;;;4.08;100.00
81125;BME280;72192;52.114;5.424;2023-12-20T01:50:28;101700.47;;;4.08;100.00
81125;BME280;72192;52.114;5.424;2023-12-20T01:53:10;101699.53;;;4.09;100.00
81125;BME280;72192;52.114;5.424;2023-12-20T01:55:54;101695.28;;;4.19;100.00
81125;BME280;72192;52.114;5.424;2023-12-20T01:58:39;101694.69;;;4.28;100.00
81125;BME280;72192;52.114;5.424;2023-12-20T02:01:24;101694.28;;;4.34;100.00
81125;BME280;72192;52.114;5.424;2023-12-20T02:04:06;101699.41;;;4.37;100.00
81125;BME280;72192;52.114;5.424;2023-12-20T02:06:46;101694.91;;;4.38;100.00
81125;BME280;72192;52.114;5.424;2023-12-20T02:09:27;101696.63;;;4.39;100.00
81125;BME280;72192;52.114;5.424;2023-12-20T02:12:08;101689.25;;;4.42;100.00
81125;BME280;72192;52.114;5.424;2023-12-20T02:14:49;101695.47;;;4.43;100.00
81125;BME280;72192;52.114;5.424;2023-12-20T02:17:29;101697.84;;;4.47;100.00
81125;BME280;72192;52.114;5.424;2023-12-20T02:20:11;101689.50;;;4.52;100.00
81125;BME280;72192;52.114;5.424;2023-12-20T02:22:50;101691.75;;;4.58;100.00
81125;BME280;72192;52.114;5.424;2023-12-20T02:25:30;101674.44;;;4.64;100.00
81125;BME280;72192;52.114;5.424;2023-12-20T02:28:10;101691.13;;;4.67;100.00
81125;BME280;72192;52.114;5.424;2023-12-20T02:30:50;101686.41;;;4.71;100.00
81125;BME280;72192;52.114;5.424;2023-12-20T02:33:29;101682.59;;;4.75;100.00
81125;BME280;72192;52.114;5.424;2023-12-20T02:36:09;101684.09;;;4.79;100.00
81125;BME280;72192;52.114;5.424;2023-12-20T02:38:48;101676.91;;;4.79;100.00
81125;BME280;72192;52.114;5.424;2023-12-20T02:41:29;101677.75;;;4.80;100.00
81125;BME280;72192;52.114;5.424;2023-12-20T02:44:08;101677.66;;;4.81;100.00
81125;BME280;72192;52.114;5.424;2023-12-20T02:46:48;101674.03;;;4.82;100.00
81125;BME280;72192;52.114;5.424;2023-12-20T02:49:27;101672.13;;;4.84;100.00
81125;BME280;72192;52.114;5.424;2023-12-20T02:52:07;101663.88;;;4.87;100.00
81125;BME280;72192;52.114;5.424;2023-12-20T02:54:47;101654.75;;;4.90;100.00
81125;BME280;72192;52.114;5.424;2023-12-20T02:57:26;101656.47;;;4.91;100.00
81125;BME280;72192;52.114;5.424;2023-12-20T03:00:07;101655.63;;;4.90;100.00
81125;BME280;72192;52.114;5.424;2023-12-20T03:02:48;101653.06;;;4.89;100.00
81125;BME280;72192;52.114;5.424;2023-12-20T03:05:30;101650.28;;;4.90;100.00
81125;BME280;72192;52.114;5.424;2023-12-20T03:08:10;101659.94;;;4.93;100.00
81125;BME280;72192;52.114;5.424;2023-12-20T03:10:50;101651.91;;;4.93;100.00
81125;BME280;72192;52.114;5.424;2023-12-20T03:13:30;101652.75;;;4.94;100.00
81125;BME280;72192;52.114;5.424;2023-12-20T03:16:10;101641.09;;;4.95;100.00
81125;BME280;72192;52.114;5.424;2023-12-20T03:18:51;101641.94;;;4.95;100.00
81125;BME280;72192;52.114;5.424;2023-12-20T03:21:30;101645.34;;;4.97;100.00
81125;BME280;72192;52.114;5.424;2023-12-20T03:24:10;101639.69;;;5.02;100.00
81125;BME280;72192;52.114;5.424;2023-12-20T03:26:50;101628.66;;;5.06;100.00
81125;BME280;72192;52.114;5.424;2023-12-20T03:29:30;101632.19;;;5.07;100.00
81125;BME280;72192;52.114;5.424;2023-12-20T03:32:09;101617.22;;;5.04;100.00
81125;BME280;72192;52.114;5.424;2023-12-20T03:34:51;101623.63;;;5.02;100.00
81125;BME280;72192;52.114;5.424;2023-12-20T03:37:30;101636.13;;;5.01;100.00
81125;BME280;72192;52.114;5.424;2023-12-20T03:40:10;101634.00;;;5.06;100.00
81125;BME280;72192;52.114;5.424;2023-12-20T03:42:50;101635.41;;;5.12;100.00
81125;BME280;72192;52.114;5.424;2023-12-20T03:45:29;101631.66;;;5.14;100.00
81125;BME280;72192;52.114;5.424;2023-12-20T03:48:09;101636.47;;;5.22;100.00
81125;BME280;72192;52.114;5.424;2023-12-20T03:50:49;101639.66;;;5.27;100.00
81125;BME280;72192;52.114;5.424;2023-12-20T03:53:28;101636.22;;;5.25;100.00
81125;BME280;72192;52.114;5.424;2023-12-20T03:56:08;101638.16;;;5.23;100.00
81125;BME280;72192;52.114;5.424;2023-12-20T03:58:48;101631.19;;;5.21;100.00
81125;BME280;72192;52.114;5.424;2023-12-20T04:01:27;101633.25;;;5.17;100.00
81125;BME280;72192;52.114;5.424;2023-12-20T04:04:07;101625.31;;;5.15;100.00
81125;BME280;72192;52.114;5.424;2023-12-20T04:06:47;101627.88;;;5.17;100.00
81125;BME280;72192;52.114;5.424;2023-12-20T04:09:27;101627.66;;;5.20;100.00
81125;BME280;72192;52.114;5.424;2023-12-20T04:12:06;101631.72;;;5.26;100.00
81125;BME280;72192;52.114;5.424;2023-12-20T04:14:53;101634.91;;;5.31;100.00
81125;BME280;72192;52.114;5.424;2023-12-20T04:17:33;101629.34;;;5.34;100.00
81125;BME280;72192;52.114;5.424;2023-12-20T04:20:12;101616.72;;;5.36;100.00
81125;BME280;72192;52.114;5.424;2023-12-20T04:22:52;101615.50;;;5.40;100.00
81125;BME280;72192;52.114;5.424;2023-12-20T04:25:32;101620.78;;;5.41;100.00
81125;BME280;72192;52.114;5.424;2023-12-20T04:28:11;101618.97;;;5.42;100.00
81125;BME280;72192;52.114;5.424;2023-12-20T04:30:51;101610.69;;;5.45;100.00
81125;BME280;72192;52.114;5.424;2023-12-20T04:33:31;101624.28;;;5.55;100.00
81125;BME280;72192;52.114;5.424;2023-12-20T04:36:11;101625.75;;;5.59;100.00
81125;BME280;72192;52.114;5.424;2023-12-20T04:38:50;101628.84;;;5.65;100.00
81125;BME280;72192;52.114;5.424;2023-12-20T04:41:30;101624.75;;;5.72;100.00
81125;BME280;72192;52.114;5.424;2023-12-20T04:44:10;101621.72;;;5.77;100.00
81125;BME280;72192;52.114;5.424;2023-12-20T04:46:49;101614.22;;;5.82;100.00
81125;BME280;72192;52.114;5.424;2023-12-20T04:49:29;101618.47;;;5.85;100.00
81125;BME280;72192;52.114;5.424;2023-12-20T04:52:09;101607.63;;;5.86;100.00
81125;BME280;72192;52.114;5.424;2023-12-20T04:54:48;101615.25;;;5.92;100.00
81125;BME280;72192;52.114;5.424;2023-12-20T04:57:28;101610.63;;;5.94;100.00
81125;BME280;72192;52.114;5.424;2023-12-20T05:00:08;101605.88;;;5.98;100.00
81125;BME280;72192;52.114;5.424;2023-12-20T05:02:48;101607.59;;;5.99;100.00
81125;BME280;72192;52.114;5.424;2023-12-20T05:05:30;101599.97;;;6.06;100.00
81125;BME280;72192;52.114;5.424;2023-12-20T05:08:10;101595.34;;;6.08;100.00
81125;BME280;72192;52.114;5.424;2023-12-20T05:10:50;101608.53;;;6.11;100.00
81125;BME280;72192;52.114;5.424;2023-12-20T05:13:30;101609.38;;;6.11;100.00
81125;BME280;72192;52.114;5.424;2023-12-20T05:16:13;101609.00;;;6.16;100.00
81125;BME280;72192;52.114;5.424;2023-12-20T05:18:55;101605.47;;;6.15;100.00
81125;BME280;72192;52.114;5.424;2023-12-20T05:21:35;101612.44;;;6.18;100.00
81125;BME280;72192;52.114;5.424;2023-12-20T05:24:15;101609.75;;;6.18;100.00
81125;BME280;72192;52.114;5.424;2023-12-20T05:26:54;101612.44;;;6.18;100.00
81125;BME280;72192;52.114;5.424;2023-12-20T05:29:34;101610.72;;;6.17;100.00
81125;BME280;72192;52.114;5.424;2023-12-20T05:32:14;101611.69;;;6.16;100.00
81125;BME280;72192;52.114;5.424;2023-12-20T05:34:54;101616.09;;;6.17;100.00
81125;BME280;72192;52.114;5.424;2023-12-20T05:37:34;101600.72;;;6.19;100.00
81125;BME280;72192;52.114;5.424;2023-12-20T05:40:13;101607.06;;;6.18;100.00
81125;BME280;72192;52.114;5.424;2023-12-20T05:42:53;101617.59;;;6.21;100.00
81125;BME280;72192;52.114;5.424;2023-12-20T05:45:33;101613.28;;;6.18;100.00
81125;BME280;72192;52.114;5.424;2023-12-20T05:48:12;101602.94;;;6.25;100.00
81125;BME280;72192;52.114;5.424;2023-12-20T05:50:52;101603.94;;;6.24;100.00
81125;BME280;72192;52.114;5.424;2023-12-20T05:53:31;101603.69;;;6.27;100.00
81125;BME280;72192;52.114;5.424;2023-12-20T05:56:11;101615.38;;;6.26;100.00
81125;BME280;72192;52.114;5.424;2023-12-20T05:58:51;101608.06;;;6.28;100.00
81125;BME280;72192;52.114;5.424;2023-12-20T06:01:30;101606.16;;;6.30;100.00
81125;BME280;72192;52.114;5.424;2023-12-20T06:04:11;101607.97;;;6.29;100.00
81125;BME280;72192;52.114;5.424;2023-12-20T06:06:50;101603.47;;;6.30;100.00
81125;BME280;72192;52.114;5.424;2023-12-20T06:09:30;101610.41;;;6.32;100.00
81125;BME280;72192;52.114;5.424;2023-12-20T06:12:10;101603.97;;;6.35;100.00
81125;BME280;72192;52.114;5.424;2023-12-20T06:14:50;101600.19;;;6.38;100.00
81125;BME280;72192;52.114;5.424;2023-12-20T06:17:29;101600.09;;;6.39;100.00
81125;BME280;72192;52.114;5.424;2023-12-20T06:20:10;101595.47;;;6.41;100.00
81125;BME280;72192;52.114;5.424;2023-12-20T06:22:49;101599.00;;;6.42;100.00
81125;BME280;72192;52.114;5.424;2023-12-20T06:25:29;101599.59;;;6.45;100.00
81125;BME280;72192;52.114;5.424;2023-12-20T06:28:09;101592.28;;;6.47;100.00
81125;BME280;72192;52.114;5.424;2023-12-20T06:30:52;101606.44;;;6.49;100.00
81125;BME280;72192;52.114;5.424;2023-12-20T06:33:33;101597.53;;;6.49;100.00
81125;BME280;72192;52.114;5.424;2023-12-20T06:36:13;101601.94;;;6.50;100.00
81125;BME280;72192;52.114;5.424;2023-12-20T06:38:53;101598.03;;;6.54;100.00
81125;BME280;72192;52.114;5.424;2023-12-20T06:41:33;101586.31;;;6.55;100.00
81125;BME280;72192;52.114;5.424;2023-12-20T06:44:12;101606.94;;;6.54;100.00
81125;BME280;72192;52.114;5.424;2023-12-20T06:46:54;101593.28;;;6.57;100.00
81125;BME280;72192;52.114;5.424;2023-12-20T06:49:34;101590.38;;;6.60;100.00
81125;BME280;72192;52.114;5.424;2023-12-20T06:52:14;101582.31;;;6.60;100.00
81125;BME280;72192;52.114;5.424;2023-12-20T06:54:53;101569.97;;;6.58;100.00
81125;BME280;72192;52.114;5.424;2023-12-20T06:57:33;101582.31;;;6.60;100.00
81125;BME280;72192;52.114;5.424;2023-12-20T07:00:14;101578.66;;;6.61;100.00
81125;BME280;72192;52.114;5.424;2023-12-20T07:02:54;101587.44;;;6.64;100.00
81125;BME280;72192;52.114;5.424;2023-12-20T07:05:34;101583.19;;;6.61;100.00
81125;BME280;72192;52.114;5.424;2023-12-20T07:08:14;101585.75;;;6.63;100.00
81125;BME280;72192;52.114;5.424;2023-12-20T07:10:54;101579.53;;;6.62;100.00
81125;BME280;72192;52.114;5.424;2023-12-20T07:13:33;101577.44;;;6.66;100.00
81125;BME280;72192;52.114;5.424;2023-12-20T07:16:14;101586.13;;;6.69;100.00
81125;BME280;72192;52.114;5.424;2023-12-20T07:18:53;101576.13;;;6.71;100.00
81125;BME280;72192;52.114;5.424;2023-12-20T07:21:41;101576.13;;;6.71;100.00
81125;BME280;72192;52.114;5.424;2023-12-20T07:24:21;101576.84;;;6.73;100.00
81125;BME280;72192;52.114;5.424;2023-12-20T07:27:00;101566.97;;;6.74;100.00
81125;BME280;72192;52.114;5.424;2023-12-20T07:29:40;101562.31;;;6.76;100.00
81125;BME280;72192;52.114;5.424;2023-12-20T07:32:21;101582.59;;;6.80;100.00
81125;BME280;72192;52.114;5.424;2023-12-20T07:35:01;101573.56;;;6.81;100.00
81125;BME280;72192;52.114;5.424;2023-12-20T07:37:41;101565.72;;;6.78;100.00
81125;BME280;72192;52.114;5.424;2023-12-20T07:40:21;101554.03;;;6.79;100.00
81125;BME280;72192;52.114;5.424;2023-12-20T07:43:02;101553.78;;;6.82;100.00
81125;BME280;72192;52.114;5.424;2023-12-20T07:45:41;101562.44;;;6.85;100.00
81125;BME280;72192;52.114;5.424;2023-12-20T07:48:21;101567.59;;;6.88;100.00
81125;BME280;72192;52.114;5.424;2023-12-20T07:51:01;101571.97;;;6.89;100.00
81125;BME280;72192;52.114;5.424;2023-12-20T07:53:41;101571.00;;;6.90;100.00
81125;BME280;72192;52.114;5.424;2023-12-20T07:56:21;101578.06;;;6.92;100.00
81125;BME280;72192;52.114;5.424;2023-12-20T07:59:03;101589.19;;;6.98;100.00
81125;BME280;72192;52.114;5.424;2023-12-20T08:01:42;101593.81;;;6.96;100.00
81125;BME280;72192;52.114;5.424;2023-12-20T08:04:22;101591.00;;;6.98;100.00
81125;BME280;72192;52.114;5.424;2023-12-20T08:07:03;101596.25;;;6.99;100.00
81125;BME280;72192;52.114;5.424;2023-12-20T08:09:43;101602.50;;;7.00;100.00
81125;BME280;72192;52.114;5.424;2023-12-20T08:12:24;101609.44;;;7.02;100.00
81125;BME280;72192;52.114;5.424;2023-12-20T08:15:06;101600.53;;;7.02;100.00
81125;BME280;72192;52.114;5.424;2023-12-20T08:17:47;101603.09;;;7.03;100.00
81125;BME280;72192;52.114;5.424;2023-12-20T08:20:29;101594.91;;;7.05;100.00
81125;BME280;72192;52.114;5.424;2023-12-20T08:23:16;101601.13;;;7.05;100.00
81125;BME280;72192;52.114;5.424;2023-12-20T08:25:55;101587.69;;;7.05;100.00
81125;BME280;72192;52.114;5.424;2023-12-20T08:28:36;101586.50;;;7.09;100.00
81125;BME280;72192;52.114;5.424;2023-12-20T08:31:17;101588.19;;;7.10;100.00
81125;BME280;72192;52.114;5.424;2023-12-20T08:33:57;101591.63;;;7.12;100.00
81125;BME280;72192;52.114;5.424;2023-12-20T08:36:37;101590.50;;;7.15;100.00
81125;BME280;72192;52.114;5.424;2023-12-20T08:39:17;101589.66;;;7.14;100.00
81125;BME280;72192;52.114;5.424;2023-12-20T08:41:56;101586.13;;;7.14;100.00
81125;BME280;72192;52.114;5.424;2023-12-20T08:44:36;101588.66;;;7.15;100.00
81125;BME280;72192;52.114;5.424;2023-12-20T08:47:16;101587.09;;;7.13;100.00
81125;BME280;72192;52.114;5.424;2023-12-20T08:49:56;101591.47;;;7.14;100.00
81125;BME280;72192;52.114;5.424;2023-12-20T08:52:38;101578.91;;;7.14;100.00
81125;BME280;72192;52.114;5.424;2023-12-20T08:55:19;101585.38;;;7.12;100.00
81125;BME280;72192;52.114;5.424;2023-12-20T08:58:01;101578.44;;;7.09;100.00
81125;BME280;72192;52.114;5.424;2023-12-20T09:00:40;101585.00;;;7.05;100.00
81125;BME280;72192;52.114;5.424;2023-12-20T09:03:20;101582.72;;;7.01;100.00
81125;BME280;72192;52.114;5.424;2023-12-20T09:06:00;101581.13;;;6.98;100.00
81125;BME280;72192;52.114;5.424;2023-12-20T09:08:47;101583.19;;;6.95;100.00
81125;BME280;72192;52.114;5.424;2023-12-20T09:11:27;101578.06;;;6.92;100.00
81125;BME280;72192;52.114;5.424;2023-12-20T09:14:06;101570.28;;;6.88;100.00
81125;BME280;72192;52.114;5.424;2023-12-20T09:16:46;101576.59;;;6.87;100.00
81125;BME280;72192;52.114;5.424;2023-12-20T09:19:26;101575.75;;;6.87;100.00
81125;BME280;72192;52.114;5.424;2023-12-20T09:22:06;101578.34;;;6.88;100.00
81125;BME280;72192;52.114;5.424;2023-12-20T09:24:46;101575.66;;;6.88;100.00
81125;BME280;72192;52.114;5.424;2023-12-20T09:27:26;101570.88;;;6.92;100.00
81125;BME280;72192;52.114;5.424;2023-12-20T09:30:06;101567.81;;;6.97;100.00
81125;BME280;72192;52.114;5.424;2023-12-20T09:32:46;101574.41;;;7.04;100.00
81125;BME280;72192;52.114;5.424;2023-12-20T09:35:26;101583.44;;;7.14;100.00
81125;BME280;72192;52.114;5.424;2023-12-20T09:38:05;101576.47;;;7.23;100.00
81125;BME280;72192;52.114;5.424;2023-12-20T09:40:45;101578.41;;;7.32;100.00
81125;BME280;72192;52.114;5.424;2023-12-20T09:43:27;101578.78;;;7.38;100.00
81125;BME280;72192;52.114;5.424;2023-12-20T09:46:11;101581.06;;;7.43;100.00
81125;BME280;72192;52.114;5.424;2023-12-20T09:48:55;101584.13;;;7.50;100.00
81125;BME280;72192;52.114;5.424;2023-12-20T09:51:36;101584.59;;;7.55;100.00
81125;BME280;72192;52.114;5.424;2023-12-20T09:54:17;101586.06;;;7.59;100.00
81125;BME280;72192;52.114;5.424;2023-12-20T09:56:57;101588.34;;;7.63;100.00
81125;BME280;72192;52.114;5.424;2023-12-20T09:59:37;101577.09;;;7.69;100.00
81125;BME280;72192;52.114;5.424;2023-12-20T10:02:21;101577.34;;;7.78;100.00
81125;BME280;72192;52.114;5.424;2023-12-20T10:05:08;101576.81;;;7.84;100.00
81125;BME280;72192;52.114;5.424;2023-12-20T10:07:53;101584.09;;;7.93;100.00
81125;BME280;72192;52.114;5.424;2023-12-20T10:10:33;101580.91;;;7.99;100.00
81125;BME280;72192;52.114;5.424;2023-12-20T10:13:13;101594.66;;;8.05;100.00
81125;BME280;72192;52.114;5.424;2023-12-20T10:15:55;101593.94;;;8.03;100.00
81125;BME280;72192;52.114;5.424;2023-12-20T10:18:36;101597.38;;;8.05;100.00
81125;BME280;72192;52.114;5.424;2023-12-20T10:21:15;101599.09;;;8.07;100.00
81125;BME280;72192;52.114;5.424;2023-12-20T10:23:57;101602.63;;;8.07;100.00
81125;BME280;72192;52.114;5.424;2023-12-20T10:26:37;101582.97;;;8.07;100.00
81125;BME280;72192;52.114;5.424;2023-12-20T10:29:17;101591.88;;;8.07;100.00
81125;BME280;72192;52.114;5.424;2023-12-20T10:31:57;101587.22;;;8.09;100.00
81125;BME280;72192;52.114;5.424;2023-12-20T10:34:36;101579.88;;;8.11;100.00
81125;BME280;72192;52.114;5.424;2023-12-20T10:37:16;101569.97;;;8.12;100.00
81125;BME280;72192;52.114;5.424;2023-12-20T10:39:56;101573.00;;;8.18;100.00
81125;BME280;72192;52.114;5.424;2023-12-20T10:42:41;101568.19;;;8.22;100.00
81125;BME280;72192;52.114;5.424;2023-12-20T10:45:22;101571.75;;;8.22;100.00
81125;BME280;72192;52.114;5.424;2023-12-20T10:48:07;101568.19;;;8.22;100.00
81125;BME280;72192;52.114;5.424;2023-12-20T10:50:50;101571.59;;;8.24;100.00
81125;BME280;72192;52.114;5.424;2023-12-20T10:53:30;101569.06;;;8.22;100.00
81125;BME280;72192;52.114;5.424;2023-12-20T10:56:19;101560.84;;;8.24;100.00
81125;BME280;72192;52.114;5.424;2023-12-20T10:59:02;101556.78;;;8.29;100.00
81125;BME280;72192;52.114;5.424;2023-12-20T11:01:43;101551.88;;;8.34;100.00
81125;BME280;72192;52.114;5.424;2023-12-20T11:04:28;101550.66;;;8.39;100.00
81125;BME280;72192;52.114;5.424;2023-12-20T11:07:28;101551.22;;;8.42;100.00
81125;BME280;72192;52.114;5.424;2023-12-20T11:10:33;101541.94;;;8.46;100.00
81125;BME280;72192;52.114;5.424;2023-12-20T11:13:31;101547.47;;;8.54;100.00
81125;BME280;72192;52.114;5.424;2023-12-20T11:16:15;101535.06;;;8.63;100.00
81125;BME280;72192;52.114;5.424;2023-12-20T11:18:54;101547.47;;;8.75;100.00
81125;BME280;72192;52.114;5.424;2023-12-20T11:21:34;101541.13;;;8.86;100.00
81125;BME280;72192;52.114;5.424;2023-12-20T11:24:15;101536.88;;;8.93;99.02
81125;BME280;72192;52.114;5.424;2023-12-20T11:27:03;101525.53;;;8.89;99.02
81125;BME280;72192;52.114;5.424;2023-12-20T11:29:51;101510.91;;;8.82;99.69
81125;BME280;72192;52.114;5.424;2023-12-20T11:32:34;101513.75;;;8.81;99.00
81125;BME280;72192;52.114;5.424;2023-12-20T11:37:57;101527.84;;;9.04;99.38
81125;BME280;72192;52.114;5.424;2023-12-20T11:40:37;101520.66;;;9.14;99.34
81125;BME280;72192;52.114;5.424;2023-12-20T11:43:35;101515.00;;;9.17;98.57
81125;BME280;72192;52.114;5.424;2023-12-20T11:46:15;101517.94;;;9.14;97.89
81125;BME280;72192;52.114;5.424;2023-12-20T11:48:55;101507.47;;;9.11;97.04
81125;BME280;72192;52.114;5.424;2023-12-20T11:51:35;101506.91;;;9.07;97.61
81125;BME280;72192;52.114;5.424;2023-12-20T11:54:19;101501.50;;;9.07;97.53
81125;BME280;72192;52.114;5.424;2023-12-20T11:56:59;101496.53;;;9.12;98.30
81125;BME280;72192;52.114;5.424;2023-12-20T11:59:38;101490.16;;;9.13;97.45
81125;BME280;72192;52.114;5.424;2023-12-20T12:02:19;101491.59;;;9.17;97.87
81125;BME280;72192;52.114;5.424;2023-12-20T12:05:02;101490.47;;;9.20;96.87
81125;BME280;72192;52.114;5.424;2023-12-20T12:07:45;101498.56;;;9.20;97.19
81125;BME280;72192;52.114;5.424;2023-12-20T12:10:25;101502.69;;;9.14;96.73
81125;BME280;72192;52.114;5.424;2023-12-20T12:13:05;101496.53;;;9.12;97.73
81125;BME280;72192;52.114;5.424;2023-12-20T12:15:45;101505.75;;;9.10;97.55
81125;BME280;72192;52.114;5.424;2023-12-20T12:18:25;101497.53;;;9.11;96.98
81125;BME280;72192;52.114;5.424;2023-12-20T12:21:04;101511.44;;;9.07;96.57
81125;BME280;72192;52.114;5.424;2023-12-20T12:23:44;101506.91;;;9.07;96.84
81125;BME280;72192;52.114;5.424;2023-12-20T12:26:31;101507.75;;;9.08;97.03
81125;BME280;72192;52.114;5.424;2023-12-20T12:29:10;101501.22;;;9.10;96.96
81125;BME280;72192;52.114;5.424;2023-12-20T12:31:50;101486.63;;;9.13;96.47
81125;BME280;72192;52.114;5.424;2023-12-20T12:34:30;101478.69;;;9.11;96.58
81125;BME280;72192;52.114;5.424;2023-12-20T12:37:10;101484.34;;;9.08;95.84
81125;BME280;72192;52.114;5.424;2023-12-20T12:39:53;101465.66;;;9.07;95.69
81125;BME280;72192;52.114;5.424;2023-12-20T12:42:33;101473.88;;;9.05;96.21
81125;BME280;72192;52.114;5.424;2023-12-20T12:45:13;101467.50;;;9.06;97.30
81125;BME280;72192;52.114;5.424;2023-12-20T12:47:53;101456.13;;;9.12;97.67
81125;BME280;72192;52.114;5.424;2023-12-20T12:50:41;101446.34;;;9.11;97.48
81125;BME280;72192;52.114;5.424;2023-12-20T12:53:25;101458.41;;;9.07;97.26
81125;BME280;72192;52.114;5.424;2023-12-20T12:56:06;101450.34;;;9.07;96.15
81125;BME280;72192;52.114;5.424;2023-12-20T12:58:46;101453.72;;;9.09;96.82
81125;BME280;72192;52.114;5.424;2023-12-20T13:01:25;101446.09;;;9.14;96.83
81125;BME280;72192;52.114;5.424;2023-12-20T13:04:05;101447.06;;;9.13;97.03
81125;BME280;72192;52.114;5.424;2023-12-20T13:06:48;101435.88;;;9.08;96.88
81125;BME280;72192;52.114;5.424;2023-12-20T13:09:28;101443.50;;;9.03;96.73
81125;BME280;72192;52.114;5.424;2023-12-20T13:12:08;101437.56;;;9.00;96.95
81125;BME280;72192;52.114;5.424;2023-12-20T13:15:11;101429.75;;;8.97;97.36
81125;BME280;72192;52.114;5.424;2023-12-20T13:18:11;101425.47;;;8.94;96.88
81125;BME280;72192;52.114;5.424;2023-12-20T13:20:51;101419.53;;;8.90;96.99
81125;BME280;72192;52.114;5.424;2023-12-20T13:23:31;101411.75;;;8.87;97.38
81125;BME280;72192;52.114;5.424;2023-12-20T13:26:11;101401.13;;;8.86;97.60
81125;BME280;72192;52.114;5.424;2023-12-20T13:28:51;101403.91;;;8.84;97.83
81125;BME280;72192;52.114;5.424;2023-12-20T13:31:31;101394.13;;;8.83;97.12
81125;BME280;72192;52.114;5.424;2023-12-20T13:34:11;101398.81;;;8.81;97.35
81125;BME280;72192;52.114;5.424;2023-12-20T13:36:51;101386.34;;;8.80;96.78
81125;BME280;72192;52.114;5.424;2023-12-20T13:39:31;101378.13;;;8.82;96.97
81125;BME280;72192;52.114;5.424;2023-12-20T13:42:11;101380.97;;;8.80;96.91
81125;BME280;72192;52.114;5.424;2023-12-20T13:44:51;101371.03;;;8.81;97.05
81125;BME280;72192;52.114;5.424;2023-12-20T13:47:31;101367.22;;;8.83;97.13
81125;BME280;72192;52.114;5.424;2023-12-20T13:50:12;101377.88;;;8.85;96.34
81125;BME280;72192;52.114;5.424;2023-12-20T13:52:52;101364.25;;;8.86;96.74
81125;BME280;72192;52.114;5.424;2023-12-20T13:55:31;101374.75;;;8.89;96.61
81125;BME280;72192;52.114;5.424;2023-12-20T13:58:12;101374.75;;;8.89;97.17
81125;BME280;72192;52.114;5.424;2023-12-20T14:00:52;101378.00;;;8.93;97.35
81125;BME280;72192;52.114;5.424;2023-12-20T14:03:31;101373.06;;;8.98;96.96
81125;BME280;72192;52.114;5.424;2023-12-20T14:06:11;101366.69;;;8.99;96.98